This is the latest recevied weather packets stored in our database for station/object DG5MNJ. If no packets are shown the sender has not sent any weather packets the latest 10 day(s).
| Time | Temp. | Humidity | Pressure | Rain* | Wind** | Luminosity | Snow |
|---|---|---|---|---|---|---|---|
| 1777353602 | 5.56° C | 75% | 1015.2 hPa | 0 mm | - | 60 W/m² | - |
| 1777353002 | 6.11° C | 74% | 1014.8 hPa | 0 mm | - | 62 W/m² | - |
| 1777352702 | 6.11° C | 76% | 1014.9 hPa | 0 mm | - | 68 W/m² | - |
| 1777351802 | 5.56° C | 78% | 1014.7 hPa | 0 mm | - | 42 W/m² | - |
| 1777351522 | 5° C | 77% | 1014.9 hPa | 0 mm | - | 36 W/m² | - |
| 1777344902 | 5° C | 75% | 1015.1 hPa | 0 mm | - | 0 W/m² | - |
| 1777342503 | 5.56° C | 72% | 1015.2 hPa | 0 mm | - | 0 W/m² | - |
| 1777337122 | 6.11° C | 70% | 1015.3 hPa | 0 mm | - | 0 W/m² | - |
| 1777334402 | 7.22° C | 68% | 1015.7 hPa | 0 mm | - | 0 W/m² | - |
| 1777330501 | 8.89° C | 61% | 1015.8 hPa | 0 mm | - | 0 W/m² | - |
| 1777329302 | 9.44° C | 60% | 1016 hPa | 0 mm | - | 0 W/m² | - |
| 1777328402 | 9.44° C | 58% | 1016.1 hPa | 0 mm | - | 0 W/m² | - |
| 1777326923 | 10° C | 55% | 1016.1 hPa | 0 mm | - | 0 W/m² | - |
| 1777324802 | 10.56° C | 54% | 1016.4 hPa | 0 mm | - | 0 W/m² | - |
| 1777321822 | 11.67° C | 51% | 1016.5 hPa | 0 mm | - | 0 W/m² | - |
| 1777320302 | 12.22° C | 48% | 1016.7 hPa | 0 mm | - | 0 W/m² | - |
| 1777319722 | 12.22° C | 50% | 1016.4 hPa | 0 mm | - | 0 W/m² | - |
| 1777319102 | 12.22° C | 49% | 1016.9 hPa | 0 mm | - | 0 W/m² | - |
| 1777318502 | 12.78° C | 50% | 1016.9 hPa | 0 mm | - | 0 W/m² | - |
| 1777315202 | 15° C | 40% | 1016.8 hPa | 0 mm | - | 0 W/m² | - |
| 1777314902 | 15° C | 39% | 1016.7 hPa | 0 mm | - | 0 W/m² | - |
| 1777313402 | 15.56° C | 36% | 1016.5 hPa | 0 mm | - | 0 W/m² | - |
| 1777312202 | 16.67° C | 34% | 1016.4 hPa | 0 mm | - | 17 W/m² | - |
| 1777310422 | 17.22° C | 32% | 1016.2 hPa | 0 mm | - | 71 W/m² | - |
| 1777309502 | 17.78° C | 31% | 1016.3 hPa | 0 mm | - | 95 W/m² | - |
* Rain latest hour (hover to see other rain measurements)
** Current wind speed in m/s (hover to see current wind gust speed)